Time;durP1;ratioP1;P1;durP2;ratioP2;P2;SDS_P1;SDS_P2;PMS_P1;PMS_P2;Temp;Humidity;BMP_temperature;BMP_pressure;BME280_temperature;BME280_humidity;BME280_pressure;Samples;Min_cycle;Max_cycle;Signal;HPM_P1;HPM_P2
2022/11/17 06:31:48;;;;;;;;;2.50;1.00;;;;;10.67;100.00;98800.22;6234998;22;49868;-72
2022/11/17 06:34:31;;;;;;;;;1.00;1.00;;;;;11.35;100.00;98897.47;6236181;22;49842;-75
2022/11/17 06:37:12;;;;;;;;;1.00;1.00;;;;;11.63;100.00;98943.56;6208776;22;51180;-76
2022/11/17 06:39:59;;;;;;;;;0.00;0.00;;;;;11.64;100.00;98939.16;6236279;22;49623;-74
2022/11/17 06:43:05;;;;;;;;;0.25;0.00;;;;;11.69;100.00;98945.25;6233602;22;50028;-74
2022/11/17 06:45:51;;;;;;;;;;;;;;;;;;;;;
2022/11/17 06:48:34;;;;;;;;;0.00;0.00;;;;;11.24;100.00;98868.72;6233377;22;79459;-72
2022/11/17 06:51:31;;;;;;;;;1.00;1.00;;;;;11.56;100.00;98922.63;6235831;22;49766;-75
2022/11/17 06:54:27;;;;;;;;;1.00;0.00;;;;;11.51;100.00;98922.69;6233920;22;50060;-72
2022/11/17 07:00:11;;;;;;;;;0.00;0.00;;;;;11.42;100.00;98957.81;6140442;23;49752;-81
2022/11/17 07:02:48;;;;;;;;;3.00;0.00;;;;;10.40;100.00;98792.66;6142756;23;49596;-78
2022/11/17 07:05:28;;;;;;;;;0.00;0.00;;;;;11.32;100.00;98929.03;6196075;22;49671;-74
2022/11/17 07:08:04;;;;;;;;;0.00;0.00;;;;;11.49;100.00;98981.41;6200457;22;50047;-78
2022/11/17 07:10:53;;;;;;;;;;;;;;;;;;;;;
2022/11/17 07:13:54;;;;;;;;;0.00;0.00;;;;;11.51;100.00;98963.88;6234611;22;75258;-79
2022/11/17 07:16:58;;;;;;;;;1.00;1.00;;;;;11.54;100.00;98995.34;6213438;22;49721;-77
2022/11/17 07:20:24;;;;;;;;;0.00;0.00;;;;;11.53;100.00;98970.84;6209135;22;49559;-82
2022/11/17 07:23:20;;;;;;;;;0.75;0.75;;;;;11.10;100.00;98904.78;6208264;22;51907;-76
2022/11/17 07:26:18;;;;;;;;;0.00;0.00;;;;;10.74;100.00;98836.03;6236034;22;49666;-80
2022/11/17 07:32:04;;;;;;;;;1.00;0.75;;;;;10.23;100.00;98756.97;6213679;22;50044;-74
2022/11/17 07:35:05;;;;;;;;;0.00;0.00;;;;;11.50;100.00;98957.75;6233492;22;50350;-78
2022/11/17 07:38:03;;;;;;;;;1.25;1.00;;;;;11.75;100.00;98990.69;6232755;22;50233;-74
2022/11/17 07:44:02;;;;;;;;;2.25;1.00;;;;;10.92;100.00;98834.09;6233463;22;49906;-77
2022/11/17 07:46:27;;;;;;;;;2.50;1.00;;;;;11.81;100.00;98989.81;6233325;22;49756;-77
2022/11/17 07:48:57;;;;;;;;;1.50;0.00;;;;;10.95;100.00;98862.94;6234659;22;49781;-77
2022/11/17 07:51:43;;;;;;;;;0.00;0.00;;;;;10.93;100.00;98823.56;6234741;22;49904;-77
2022/11/17 07:54:45;;;;;;;;;1.25;0.75;;;;;12.00;100.00;99009.72;6236196;22;49504;-75
2022/11/17 07:57:32;;;;;;;;;3.00;0.25;;;;;10.60;100.00;98765.31;6231039;22;50737;-76
2022/11/17 08:00:14;;;;;;;;;;;;;;;;;;;;;
2022/11/17 08:02:51;;;;;;;;;2.00;1.75;;;;;11.22;100.00;98891.50;6140926;22;74241;-76
2022/11/17 08:05:45;;;;;;;;;2.50;0.75;;;;;10.73;100.00;98797.56;6248369;22;50071;-75
2022/11/17 08:08:25;;;;;;;;;2.25;0.75;;;;;11.96;100.00;98979.06;6232391;22;49820;-75
2022/11/17 08:11:23;;;;;;;;;1.00;0.00;;;;;12.05;100.00;98993.88;6236294;22;49701;-75
2022/11/17 08:14:10;;;;;;;;;2.00;2.00;;;;;11.11;100.00;98828.59;6235793;22;49938;-77
2022/11/17 08:17:02;;;;;;;;;3.75;2.50;;;;;11.88;100.00;98966.94;6236382;22;49754;-77
2022/11/17 08:19:48;;;;;;;;;0.00;0.00;;;;;12.27;100.00;99039.19;6219333;22;50484;-77
2022/11/17 08:22:23;;;;;;;;;5.00;1.00;;;;;11.99;100.00;98997.47;6235788;22;49673;-78
2022/11/17 08:24:54;;;;;;;;;1.00;0.25;;;;;11.99;100.00;98997.47;6231894;22;50229;-78
2022/11/17 08:27:33;;;;;;;;;1.75;0.00;;;;;12.36;100.00;99036.44;6208526;22;49599;-77
2022/11/17 08:30:34;;;;;;;;;0.50;0.00;;;;;12.44;100.00;99042.44;6235299;22;50761;-78
2022/11/17 08:36:08;;;;;;;;;1.00;0.50;;;;;11.56;100.00;98901.59;6235203;22;49798;-78
2022/11/17 08:38:38;;;;;;;;;0.00;0.00;;;;;12.10;100.00;98986.78;6235911;22;49947;-77
2022/11/17 08:41:11;;;;;;;;;0.75;0.75;;;;;12.50;100.00;99079.22;6235257;22;49935;-78
2022/11/17 08:47:03;;;;;;;;;1.00;1.00;;;;;12.50;100.00;99058.16;6235876;22;49978;-78
2022/11/17 08:49:52;;;;;;;;;0.75;0.75;;;;;11.59;100.00;98873.53;6235981;22;49832;-76
2022/11/17 08:52:34;;;;;;;;;2.00;2.00;;;;;12.47;100.00;99017.84;6208417;22;52383;-79
2022/11/17 08:55:08;;;;;;;;;1.50;1.00;;;;;10.83;100.00;98732.69;6233590;22;49842;-79
2022/11/17 08:57:37;;;;;;;;;2.00;2.00;;;;;11.91;100.00;98909.03;6234711;22;49732;-78
2022/11/17 09:00:25;;;;;;;;;0.75;0.00;;;;;12.73;100.00;99036.75;6208785;22;50258;-77
2022/11/17 09:03:22;;;;;;;;;1.50;1.00;;;;;12.88;100.00;99061.97;6235165;22;50189;-77
2022/11/17 09:06:09;;;;;;;;;1.00;1.00;;;;;13.00;100.00;99056.50;6204108;22;49610;-78
2022/11/17 09:09:02;;;;;;;;;2.00;1.00;;;;;13.17;100.00;99057.09;6235145;22;49892;-77
2022/11/17 09:11:48;;;;;;;;;3.00;1.00;;;;;12.82;100.00;98957.59;6208019;22;50243;-77
2022/11/17 09:14:45;;;;;;;;;1.50;1.50;;;;;12.03;100.00;98853.63;6235478;22;50839;-79
2022/11/17 09:17:49;;;;;;;;;;;;;;;;;;;;;
2022/11/17 09:20:27;;;;;;;;;0.75;0.75;;;;;12.85;100.00;98961.97;6234040;22;73981;-79
2022/11/17 09:23:12;;;;;;;;;2.75;1.25;;;;;12.71;100.00;98959.53;6208153;22;49998;-80
2022/11/17 09:29:23;;;;;;;;;3.50;1.75;;;;;12.81;100.00;98928.66;6233869;22;49585;-79
2022/11/17 09:32:20;;;;;;;;;;;;;;;;;;;;;
2022/11/17 09:35:10;;;;;;;;;3.00;1.00;;;;;12.53;100.00;98894.91;6203573;22;68702;-79
2022/11/17 09:38:05;;;;;;;;;2.25;1.25;;;;;12.39;100.00;98877.63;6159499;22;52118;-79
2022/11/17 09:40:54;;;;;;;;;1.00;1.00;;;;;13.66;100.00;99080.00;6168907;22;50146;-79
2022/11/17 09:43:54;;;;;;;;;1.50;1.50;;;;;13.69;100.00;99057.97;6202491;22;49595;-79
2022/11/17 09:46:58;;;;;;;;;6.50;3.75;;;;;13.24;100.00;98985.91;6177518;22;50105;-79
2022/11/17 09:49:39;;;;;;;;;2.00;2.00;;;;;13.74;100.00;99062.25;6159797;22;49752;-79
2022/11/17 09:52:31;;;;;;;;;4.75;2.00;;;;;13.63;100.00;99035.25;6204290;22;49770;-79
2022/11/17 09:55:01;;;;;;;;;2.75;2.00;;;;;12.88;99.38;98894.31;6177346;22;49729;-78
2022/11/17 09:57:35;;;;;;;;;3.75;2.00;;;;;13.77;99.36;99031.44;6177506;22;49786;-79
2022/11/17 10:00:12;;;;;;;;;4.25;2.75;;;;;14.11;98.39;99085.28;6204432;22;49695;-78
2022/11/17 10:02:38;;;;;;;;;4.50;3.00;;;;;13.50;99.57;98951.13;6204240;22;49664;-78
2022/11/17 10:05:05;;;;;;;;;6.50;2.50;;;;;13.03;98.57;98885.25;6204661;22;49619;-76
2022/11/17 10:07:33;;;;;;;;;6.50;4.50;;;;;13.39;98.20;98925.84;6206530;22;49676;-76
2022/11/17 10:10:02;;;;;;;;;4.25;2.00;;;;;13.54;98.47;98911.50;6205708;22;49666;-76
2022/11/17 10:12:37;;;;;;;;;4.25;4.25;;;;;13.82;97.61;98971.59;6204163;22;49749;-77
2022/11/17 10:15:46;;;;;;;;;3.00;1.50;;;;;13.45;98.03;98870.38;6178833;22;49758;-78
2022/11/17 10:18:13;;;;;;;;;2.00;2.00;;;;;14.02;98.27;98956.19;6135158;22;50172;-79
2022/11/17 10:20:40;;;;;;;;;2.00;2.00;;;;;13.96;99.65;98932.56;6180642;22;51344;-80
2022/11/17 10:23:06;;;;;;;;;2.25;2.25;;;;;13.65;100.00;98869.09;6178229;22;49675;-79
2022/11/17 10:25:37;;;;;;;;;2.50;2.00;;;;;13.00;100.00;98798.38;6178328;22;49825;-79
2022/11/17 10:28:06;;;;;;;;;1.00;1.00;;;;;13.67;98.85;98880.47;6204187;22;49820;-79
2022/11/17 10:30:31;;;;;;;;;3.75;1.25;;;;;13.79;97.65;98924.16;6222008;22;49760;-78
2022/11/17 10:32:59;;;;;;;;;2.00;1.00;;;;;14.17;99.15;98982.22;6236075;22;49662;-78
2022/11/17 10:35:32;;;;;;;;;2.00;2.00;;;;;14.67;98.92;99061.22;6236779;22;49483;-78
2022/11/17 10:38:07;;;;;;;;;1.00;1.00;;;;;14.63;98.36;99047.22;6236381;22;49527;-78
2022/11/17 10:40:48;;;;;;;;;5.50;3.50;;;;;14.57;97.28;99034.16;6236281;22;49517;-79
2022/11/17 10:43:15;;;;;;;;;3.00;3.00;;;;;14.66;97.19;99036.59;6236063;22;49914;-78
2022/11/17 10:45:48;;;;;;;;;4.25;2.75;;;;;14.66;95.23;99039.22;6236507;22;49774;-78
2022/11/17 10:48:27;;;;;;;;;1.50;1.50;;;;;14.82;93.00;99043.25;6236503;22;49765;-79
2022/11/17 10:50:55;;;;;;;;;2.50;1.50;;;;;14.20;91.61;98961.06;6236292;22;49678;-78
2022/11/17 10:53:24;;;;;;;;;0.00;0.00;;;;;13.71;90.47;98919.06;6236654;22;49890;-78
2022/11/17 10:55:56;;;;;;;;;1.00;1.00;;;;;13.65;91.16;98880.50;6236074;22;49977;-79
2022/11/17 10:58:27;;;;;;;;;1.00;0.00;;;;;14.65;90.92;99087.69;6235750;22;49717;-78
2022/11/17 11:00:56;;;;;;;;;1.00;1.00;;;;;14.62;91.24;99063.13;6236210;22;49536;-78
2022/11/17 11:03:25;;;;;;;;;1.75;0.00;;;;;13.72;90.60;98944.53;6235543;22;49565;-78
2022/11/17 11:05:57;;;;;;;;;0.00;0.00;;;;;13.88;88.86;98948.56;6236164;22;49732;-78
2022/11/17 11:08:28;;;;;;;;;1.50;1.50;;;;;13.58;89.99;98928.13;6209298;22;49987;-79
2022/11/17 11:10:56;;;;;;;;;1.00;0.75;;;;;13.53;89.69;98917.69;6236280;22;49864;-77
2022/11/17 11:13:41;;;;;;;;;1.50;1.00;;;;;13.75;89.35;98933.91;6236348;22;49669;-78
2022/11/17 11:16:10;;;;;;;;;0.00;0.00;;;;;13.07;88.99;98820.19;6208042;22;49948;-78
2022/11/17 11:18:37;;;;;;;;;1.25;0.25;;;;;14.52;89.25;99091.50;6209023;22;49845;-78
2022/11/17 11:21:39;;;;;;;;;4.00;2.00;;;;;14.53;89.94;99043.94;6236200;22;49875;-77
2022/11/17 11:24:22;;;;;;;;;0.00;0.00;;;;;14.51;88.96;99051.03;6235805;22;49918;-78
2022/11/17 11:26:53;;;;;;;;;0.00;0.00;;;;;14.44;88.40;99051.16;6208384;22;49763;-77
2022/11/17 11:29:19;;;;;;;;;3.00;1.25;;;;;14.27;87.17;99027.75;6236599;22;49556;-78
2022/11/17 11:32:02;;;;;;;;;2.00;2.00;;;;;14.36;86.16;99045.16;6209001;22;50846;-78
2022/11/17 11:34:30;;;;;;;;;1.75;1.00;;;;;14.02;87.11;98987.84;6236108;22;49528;-77
2022/11/17 11:37:05;;;;;;;;;1.25;1.25;;;;;14.38;87.21;99081.22;6236395;22;49718;-78
2022/11/17 11:40:07;;;;;;;;;2.00;0.25;;;;;13.99;86.77;98975.59;6237972;22;49859;-78
2022/11/17 11:42:46;;;;;;;;;1.75;0.75;;;;;14.51;86.67;99064.22;6207694;22;49656;-75
2022/11/17 11:45:38;;;;;;;;;1.00;1.00;;;;;14.60;87.13;99052.59;6208952;22;49728;-78
2022/11/17 11:48:21;;;;;;;;;1.25;0.75;;;;;14.72;86.19;99036.47;6241979;22;49795;-75
2022/11/17 11:50:56;;;;;;;;;1.25;0.75;;;;;14.01;84.73;98906.97;6218674;22;49496;-77
2022/11/17 11:53:43;;;;;;;;;0.25;0.00;;;;;15.02;83.83;99028.69;6242773;22;50044;-73
2022/11/17 11:56:15;;;;;;;;;0.00;0.00;;;;;14.87;81.08;99014.09;6236124;22;49724;-76
2022/11/17 11:58:46;;;;;;;;;0.00;0.00;;;;;14.15;80.89;98918.06;6236005;22;49495;-75
2022/11/17 12:01:15;;;;;;;;;0.00;0.00;;;;;13.76;79.53;98840.72;6237838;22;49753;-73
2022/11/17 12:04:02;;;;;;;;;0.50;0.50;;;;;14.94;79.16;99046.50;6236073;22;50196;-75
2022/11/17 12:06:52;;;;;;;;;0.00;0.00;;;;;13.93;79.25;98922.09;6236787;22;49716;-76
2022/11/17 12:09:36;;;;;;;;;1.00;0.00;;;;;14.42;80.22;99011.59;6237316;22;49690;-78
2022/11/17 12:12:08;;;;;;;;;0.25;0.25;;;;;14.33;81.16;99043.47;6208833;22;49749;-80
2022/11/17 12:14:36;;;;;;;;;1.00;0.00;;;;;13.81;79.10;98976.00;6236111;22;50497;-77
2022/11/17 12:17:12;;;;;;;;;1.00;0.00;;;;;14.35;79.59;99054.88;6235658;22;49823;-77
2022/11/17 12:19:46;;;;;;;;;1.00;0.00;;;;;14.00;79.81;99009.00;6209097;22;50095;-80
2022/11/17 12:22:21;;;;;;;;;0.00;0.00;;;;;14.20;80.81;99085.09;6236166;22;49684;-78
2022/11/17 12:24:46;;;;;;;;;1.00;1.00;;;;;14.20;81.69;99068.41;6235563;22;50444;-77
2022/11/17 12:27:34;;;;;;;;;1.00;1.00;;;;;14.20;81.75;99064.00;6235447;22;49932;-79
2022/11/17 12:30:01;;;;;;;;;2.00;2.00;;;;;14.21;81.66;99081.56;6243667;22;49729;-74
2022/11/17 12:32:48;;;;;;;;;1.00;0.00;;;;;14.27;81.53;99075.28;6248021;22;49592;-77
2022/11/17 12:35:31;;;;;;;;;3.00;0.00;;;;;14.34;82.41;99063.69;6246069;22;49854;-71
2022/11/17 12:38:15;;;;;;;;;1.50;0.75;;;;;14.44;80.96;99073.16;6247016;22;49345;-72
2022/11/17 12:40:43;;;;;;;;;1.00;0.00;;;;;14.54;80.78;99064.16;6243288;22;49863;-71
2022/11/17 12:43:14;;;;;;;;;0.25;0.00;;;;;14.64;79.81;99067.44;6240855;22;49654;-79
2022/11/17 12:45:52;;;;;;;;;0.00;0.00;;;;;14.74;79.37;99062.81;6235509;22;49611;-78
2022/11/17 12:48:23;;;;;;;;;0.00;0.00;;;;;14.76;78.30;99068.94;6241316;22;49528;-69
2022/11/17 12:51:05;;;;;;;;;1.25;1.25;;;;;14.81;77.85;99075.88;6239395;22;49690;-76
2022/11/17 12:53:40;;;;;;;;;1.00;0.00;;;;;14.92;76.88;99065.03;6236915;22;49544;-77
2022/11/17 12:56:36;;;;;;;;;0.00;0.00;;;;;14.99;76.05;99052.56;6236043;22;50867;-73
2022/11/17 12:59:36;;;;;;;;;0.75;0.75;;;;;15.08;75.33;99052.34;6238341;22;49747;-78
2022/11/17 13:02:16;;;;;;;;;1.00;0.00;;;;;14.90;75.21;99000.81;6238745;22;49858;-72
2022/11/17 13:04:48;;;;;;;;;0.75;0.75;;;;;15.29;75.30;99043.88;6238642;22;49650;-74
2022/11/17 13:07:20;;;;;;;;;0.75;0.75;;;;;15.04;75.24;98981.97;6236753;22;49869;-76
2022/11/17 13:09:51;;;;;;;;;0.00;0.00;;;;;15.39;76.35;99020.69;6234701;22;49973;-73
2022/11/17 13:12:21;;;;;;;;;1.00;1.00;;;;;15.27;73.83;98990.16;6221062;22;49392;-77
2022/11/17 13:14:54;;;;;;;;;0.00;0.00;;;;;15.52;73.52;99042.38;6247778;22;49355;-77
2022/11/17 13:17:24;;;;;;;;;0.50;0.00;;;;;15.08;72.43;99000.34;6247378;22;50099;-78
2022/11/17 13:20:11;;;;;;;;;2.25;0.50;;;;;15.41;72.63;99043.53;6247756;22;49208;-77
2022/11/17 13:22:36;;;;;;;;;0.00;0.00;;;;;14.51;73.49;98940.13;6236202;22;49758;-77
2022/11/17 13:25:19;;;;;;;;;0.00;0.00;;;;;15.22;73.20;99062.56;6238533;22;49920;-77
2022/11/17 13:27:45;;;;;;;;;0.00;0.00;;;;;15.33;73.00;99060.50;6238572;22;49711;-77
2022/11/17 13:30:16;;;;;;;;;0.50;0.00;;;;;14.91;73.32;98994.63;6234756;22;49975;-75
2022/11/17 13:32:42;;;;;;;;;0.00;0.00;;;;;15.35;72.86;99077.22;6235454;22;49508;-77
2022/11/17 13:35:21;;;;;;;;;0.00;0.00;;;;;15.16;72.71;99059.19;6235144;22;49686;-79
2022/11/17 13:38:10;;;;;;;;;0.00;0.00;;;;;15.34;73.77;99044.59;6236078;22;50350;-73
2022/11/17 13:40:36;;;;;;;;;2.00;0.75;;;;;14.72;72.03;98927.31;6235982;22;49685;-78
2022/11/17 13:43:04;;;;;;;;;0.75;0.00;;;;;15.62;72.87;99073.88;6238752;22;49710;-75
2022/11/17 13:45:30;;;;;;;;;1.00;1.00;;;;;15.56;72.22;99083.72;6236575;22;49920;-76
2022/11/17 13:47:57;;;;;;;;;0.25;0.25;;;;;15.62;73.23;99092.38;6237107;22;50824;-74
2022/11/17 13:50:25;;;;;;;;;0.00;0.00;;;;;15.73;72.87;99082.41;6237106;22;50196;-75
2022/11/17 13:53:14;;;;;;;;;0.50;0.50;;;;;15.82;73.00;99077.75;6236886;22;49746;-74
2022/11/17 13:55:45;;;;;;;;;1.00;0.00;;;;;15.60;72.17;99036.03;6236595;22;49638;-76
2022/11/17 13:58:39;;;;;;;;;0.00;0.00;;;;;15.85;72.00;99080.34;6235656;22;50702;-71
2022/11/17 14:01:09;;;;;;;;;0.50;0.50;;;;;15.64;72.43;99050.91;6234366;22;49676;-70
2022/11/17 14:03:38;;;;;;;;;2.50;0.75;;;;;14.81;72.41;98912.09;6235037;22;49797;-70
2022/11/17 14:06:11;;;;;;;;;1.00;0.00;;;;;15.60;73.17;99032.47;6235542;22;49832;-71
2022/11/17 14:08:38;;;;;;;;;1.25;0.00;;;;;15.90;72.43;99084.59;6235957;22;50615;-71
2022/11/17 14:11:07;;;;;;;;;0.00;0.00;;;;;15.87;71.17;99092.63;6235476;22;49745;-71
2022/11/17 14:13:51;;;;;;;;;1.25;0.50;;;;;15.67;72.34;99098.44;6236732;22;49728;-71
2022/11/17 14:16:33;;;;;;;;;0.00;0.00;;;;;15.84;70.58;99094.50;6234093;22;49759;-72
2022/11/17 14:19:20;;;;;;;;;0.75;0.00;;;;;15.50;70.97;99058.31;6234462;22;49810;-72
2022/11/17 14:22:07;;;;;;;;;1.00;0.00;;;;;15.67;71.28;99098.44;6234931;22;49837;-71
2022/11/17 14:24:32;;;;;;;;;0.00;0.00;;;;;15.45;71.67;99081.38;6235051;22;49785;-71
2022/11/17 14:26:58;;;;;;;;;2.00;0.25;;;;;15.60;72.26;99106.53;6234813;22;49559;-72
2022/11/17 14:29:24;;;;;;;;;0.75;0.00;;;;;15.47;72.16;99092.78;6233904;22;50316;-74
2022/11/17 14:31:49;;;;;;;;;0.00;0.00;;;;;15.49;72.83;99100.66;6237187;22;49471;-73
2022/11/17 14:34:15;;;;;;;;;0.75;0.00;;;;;14.78;73.08;99017.84;6236735;22;49834;-75
2022/11/17 14:36:40;;;;;;;;;0.00;0.00;;;;;15.06;72.26;99075.31;6237345;22;49550;-74
2022/11/17 14:39:16;;;;;;;;;0.25;0.25;;;;;15.11;73.02;99105.13;6237399;22;50416;-74
2022/11/17 14:41:43;;;;;;;;;0.00;0.00;;;;;15.35;73.78;99109.81;6241826;22;49737;-73
2022/11/17 14:44:10;;;;;;;;;2.00;2.00;;;;;14.51;73.05;98995.56;6245414;22;49551;-74
2022/11/17 14:46:35;;;;;;;;;0.00;0.00;;;;;13.74;74.41;98871.53;6238088;22;49575;-75
2022/11/17 14:49:01;;;;;;;;;0.00;0.00;;;;;15.27;75.20;99113.56;6237272;22;50403;-74
2022/11/17 14:51:26;;;;;;;;;0.00;0.00;;;;;14.55;75.08;99020.13;6236258;22;49781;-73
2022/11/17 14:53:53;;;;;;;;;2.25;1.00;;;;;14.16;75.01;98958.50;6236457;22;49725;-73
2022/11/17 14:56:20;;;;;;;;;0.75;0.75;;;;;15.04;74.70;99098.22;6236626;22;49791;-73
2022/11/17 14:58:47;;;;;;;;;0.00;0.00;;;;;14.85;74.89;99040.53;6236736;22;50775;-73
2022/11/17 15:01:18;;;;;;;;;0.50;0.00;;;;;14.53;75.12;99028.09;6235732;22;49741;-74
2022/11/17 15:03:44;;;;;;;;;1.75;0.75;;;;;14.49;75.03;99009.72;6236429;22;49613;-73
2022/11/17 15:06:12;;;;;;;;;1.25;1.00;;;;;14.99;75.36;99077.22;6238356;22;49871;-73
2022/11/17 15:08:38;;;;;;;;;18.25;18.25;;;;;14.55;75.16;99018.34;6236876;22;50582;-73
2022/11/17 15:11:04;;;;;;;;;13.75;13.75;;;;;15.14;75.27;99128.81;6240234;22;49600;-73
2022/11/17 15:13:29;;;;;;;;;55.50;45.75;;;;;13.68;74.92;98875.16;6236143;22;49798;-74
2022/11/17 15:16:04;;;;;;;;;16.25;11.00;;;;;14.13;75.17;98958.59;6237031;22;49633;-74
2022/11/17 15:18:31;;;;;;;;;25.25;23.25;;;;;14.88;75.05;99103.03;6236177;22;49650;-73
2022/11/17 15:21:08;;;;;;;;;38.75;33.25;;;;;15.07;75.53;99114.03;6237123;22;49773;-73
2022/11/17 15:23:38;;;;;;;;;8.50;8.00;;;;;14.69;75.26;99049.75;6236034;22;49719;-75
2022/11/17 15:26:06;;;;;;;;;13.75;11.50;;;;;14.04;75.60;98942.06;6238224;22;49716;-74
2022/11/17 15:28:31;;;;;;;;;19.75;15.75;;;;;14.80;75.89;99089.13;6237082;22;49702;-75
2022/11/17 15:30:57;;;;;;;;;7.50;7.00;;;;;14.06;75.59;98988.66;6243499;22;49766;-75
2022/11/17 15:33:23;;;;;;;;;8.00;7.50;;;;;14.65;75.84;99092.97;6241307;22;49540;-74
2022/11/17 15:36:01;;;;;;;;;7.75;7.75;;;;;14.61;76.41;99109.78;6244542;22;49421;-75
2022/11/17 15:38:27;;;;;;;;;35.00;32.00;;;;;13.05;76.39;98861.53;6240687;22;49825;-74
2022/11/17 15:40:53;;;;;;;;;8.75;5.75;;;;;13.06;76.98;98872.03;6240587;22;49698;-74
2022/11/17 15:43:19;;;;;;;;;43.25;36.75;;;;;14.39;76.85;99108.47;6236369;22;49732;-74
2022/11/17 15:45:45;;;;;;;;;6.50;6.00;;;;;14.25;77.77;99099.06;6236707;22;49708;-74
2022/11/17 15:48:10;;;;;;;;;32.50;31.00;;;;;14.18;77.92;99084.25;6235276;22;50614;-75
2022/11/17 15:50:35;;;;;;;;;9.75;9.75;;;;;14.30;78.00;99120.97;6238531;22;49785;-74
2022/11/17 15:53:01;;;;;;;;;3.00;3.00;;;;;13.17;78.02;98979.84;6242172;22;49524;-74
2022/11/17 15:55:26;;;;;;;;;30.00;28.25;;;;;13.99;78.54;99094.31;6247324;22;49324;-75
2022/11/17 15:57:53;;;;;;;;;9.50;8.25;;;;;14.16;79.37;99132.69;6244545;22;50072;-75
2022/11/17 16:00:19;;;;;;;;;21.75;18.75;;;;;14.09;78.54;99134.59;6237654;22;49956;-75
2022/11/17 16:02:44;;;;;;;;;9.25;6.00;;;;;14.03;78.72;99132.06;6243043;22;49841;-74
2022/11/17 16:05:10;;;;;;;;;36.50;32.50;;;;;13.98;78.68;99147.09;6237602;22;49536;-83
2022/11/17 16:07:35;;;;;;;;;23.50;23.50;;;;;13.71;78.95;99137.94;6234971;22;49986;-74
2022/11/17 16:10:01;;;;;;;;;10.25;8.00;;;;;13.92;79.19;99148.09;6236099;22;49616;-74
2022/11/17 16:12:26;;;;;;;;;16.50;15.00;;;;;13.87;79.08;99147.28;6235676;22;49832;-74
2022/11/17 16:14:51;;;;;;;;;17.25;14.25;;;;;13.23;79.06;99037.72;6236038;22;49916;-74
2022/11/17 16:17:17;;;;;;;;;20.50;20.50;;;;;13.82;79.21;99154.44;6235307;22;50284;-74
2022/11/17 16:19:42;;;;;;;;;8.25;8.25;;;;;13.31;79.55;99061.28;6234578;22;49951;-74
2022/11/17 16:22:08;;;;;;;;;35.00;30.50;;;;;12.80;79.13;99012.06;6236340;22;49587;-74
2022/11/17 16:24:33;;;;;;;;;58.00;45.50;;;;;12.10;80.06;98904.38;6236261;22;49908;-76
2022/11/17 16:26:58;;;;;;;;;23.75;20.25;;;;;12.36;79.81;98946.09;6235530;22;50478;-75
2022/11/17 16:29:24;;;;;;;;;8.75;8.50;;;;;13.62;80.73;99162.69;6209190;22;49703;-74
2022/11/17 16:31:49;;;;;;;;;6.00;6.00;;;;;12.11;80.05;98919.28;6208970;22;49602;-74
2022/11/17 16:34:15;;;;;;;;;3.00;3.00;;;;;13.52;80.98;99147.06;6236435;22;50431;-74
2022/11/17 16:36:41;;;;;;;;;2.25;2.00;;;;;13.19;81.35;99094.00;6237508;22;49788;-75
2022/11/17 16:39:10;;;;;;;;;2.25;1.50;;;;;13.53;82.08;99159.34;6236092;22;49790;-74
2022/11/17 16:41:37;;;;;;;;;1.25;1.00;;;;;11.97;82.18;98899.31;6235233;22;50041;-75
2022/11/17 16:44:11;;;;;;;;;4.00;3.50;;;;;12.61;81.86;99048.31;6235801;22;49702;-75
2022/11/17 16:46:37;;;;;;;;;17.75;14.00;;;;;13.08;82.02;99138.06;6208193;22;52973;-75
2022/11/17 16:49:05;;;;;;;;;24.00;20.75;;;;;13.53;82.54;99189.22;6234623;22;49792;-75
2022/11/17 16:51:32;;;;;;;;;12.75;11.25;;;;;13.56;82.65;99170.69;6235592;22;49607;-75
2022/11/17 16:54:00;;;;;;;;;10.75;7.50;;;;;13.59;83.17;99178.53;6233918;22;49924;-74
2022/11/17 16:56:25;;;;;;;;;8.50;6.50;;;;;13.42;83.25;99173.56;6234003;22;50385;-75
2022/11/17 16:58:51;;;;;;;;;35.25;29.50;;;;;13.64;83.40;99176.72;6235210;22;49750;-83
2022/11/17 17:01:19;;;;;;;;;15.50;14.75;;;;;13.39;83.50;99144.59;6212070;22;49986;-74
2022/11/17 17:03:45;;;;;;;;;7.25;6.00;;;;;13.63;83.34;99209.25;6236063;22;50269;-79
2022/11/17 17:06:12;;;;;;;;;8.50;6.25;;;;;13.66;83.39;99188.09;6238234;22;49643;-70
2022/11/17 17:08:39;;;;;;;;;11.50;9.50;;;;;13.67;83.82;99200.38;6235099;22;49531;-73
2022/11/17 17:11:06;;;;;;;;;12.25;12.25;;;;;13.68;83.73;99188.94;6236684;22;50094;-72
2022/11/17 17:13:33;;;;;;;;;12.25;9.50;;;;;12.88;83.74;99061.97;6236613;22;49737;-71
2022/11/17 17:16:07;;;;;;;;;8.00;7.00;;;;;13.68;83.55;99203.91;6237378;22;49909;-71
2022/11/17 17:18:33;;;;;;;;;5.50;4.25;;;;;13.35;84.38;99140.28;6236035;22;49770;-71
2022/11/17 17:20:59;;;;;;;;;4.00;4.00;;;;;13.58;84.52;99190.00;6239715;22;49897;-72
2022/11/17 17:23:25;;;;;;;;;4.00;3.00;;;;;13.53;84.97;99183.94;6209616;22;49588;-71
2022/11/17 17:26:02;;;;;;;;;3.25;2.00;;;;;12.20;84.64;98977.00;6237329;22;49966;-71
2022/11/17 17:28:32;;;;;;;;;3.00;3.00;;;;;12.37;84.51;99011.00;6236792;22;49813;-71
2022/11/17 17:30:58;;;;;;;;;4.00;3.00;;;;;12.21;83.99;98998.03;6240067;22;49544;-75
2022/11/17 17:33:23;;;;;;;;;4.75;3.00;;;;;13.44;84.20;99170.91;6235468;22;49771;-76
2022/11/17 17:35:48;;;;;;;;;3.00;3.00;;;;;13.63;84.30;99205.75;6242926;22;49626;-83
2022/11/17 17:38:14;;;;;;;;;3.75;3.00;;;;;13.26;84.02;99158.03;6241094;22;49749;-74
2022/11/17 17:40:39;;;;;;;;;2.25;2.25;;;;;12.83;83.83;99076.97;6239385;22;49678;-70
2022/11/17 17:43:05;;;;;;;;;3.25;2.00;;;;;13.60;83.98;99211.06;6236552;22;49547;-70
2022/11/17 17:45:31;;;;;;;;;3.75;3.25;;;;;13.51;84.28;99205.94;6236788;22;49686;-78
2022/11/17 17:47:56;;;;;;;;;5.00;4.25;;;;;13.55;83.45;99207.66;6237077;22;49741;-76
2022/11/17 17:50:22;;;;;;;;;4.50;4.50;;;;;13.30;83.99;99208.00;6237362;22;50053;-77
2022/11/17 17:52:47;;;;;;;;;4.00;3.00;;;;;13.26;84.49;99194.91;6237014;22;49488;-85
2022/11/17 17:55:12;;;;;;;;;3.00;3.00;;;;;13.02;84.12;99153.94;6215222;22;51034;-72
2022/11/17 17:57:39;;;;;;;;;4.00;3.25;;;;;13.38;84.39;99221.94;6236280;22;52225;-70
2022/11/17 18:00:05;;;;;;;;;5.00;4.00;;;;;13.20;84.79;99195.88;6207172;22;49709;-71
2022/11/17 18:02:32;;;;;;;;;4.50;4.50;;;;;13.13;85.52;99197.72;6233905;22;49888;-73
2022/11/17 18:04:58;;;;;;;;;5.50;4.50;;;;;13.13;85.52;99208.25;6207806;22;51324;-72
2022/11/17 18:07:23;;;;;;;;;5.00;5.00;;;;;13.13;85.87;99208.25;6235817;22;49732;-71
2022/11/17 18:09:48;;;;;;;;;5.00;4.00;;;;;13.23;86.18;99234.50;6242343;22;49949;-70
2022/11/17 18:12:14;;;;;;;;;4.00;4.00;;;;;13.05;86.21;99199.56;6245071;22;49712;-70
2022/11/17 18:14:39;;;;;;;;;4.00;4.00;;;;;12.70;87.31;99141.25;6244489;22;49699;-71
2022/11/17 18:17:04;;;;;;;;;7.50;5.75;;;;;13.16;87.54;99223.13;6248819;22;49271;-74
2022/11/17 18:19:30;;;;;;;;;4.25;4.25;;;;;12.83;87.00;99167.38;6248586;22;49507;-77
2022/11/17 18:21:55;;;;;;;;;5.25;5.25;;;;;13.26;87.41;99243.22;6211095;22;49776;-77
2022/11/17 18:24:21;;;;;;;;;5.25;5.00;;;;;13.00;87.49;99192.63;6236331;22;49678;-77
2022/11/17 18:26:46;;;;;;;;;5.25;3.75;;;;;13.24;87.86;99244.13;6240567;22;49638;-78
2022/11/17 18:29:16;;;;;;;;;4.00;4.00;;;;;11.86;87.90;99024.78;6208510;22;49926;-77
2022/11/17 18:31:45;;;;;;;;;5.25;5.00;;;;;13.22;88.01;99238.00;6243798;22;49944;-74
2022/11/17 18:34:23;;;;;;;;;4.00;4.00;;;;;12.54;88.59;99165.13;6238943;22;49944;-72
2022/11/17 18:36:50;;;;;;;;;6.50;5.25;;;;;12.89;88.80;99193.63;6208953;22;49655;-72
2022/11/17 18:39:15;;;;;;;;;5.00;5.00;;;;;13.14;89.09;99246.88;6242890;22;49513;-72
2022/11/17 18:41:41;;;;;;;;;7.75;6.50;;;;;13.12;89.33;99247.75;6244329;22;49447;-71
2022/11/17 18:44:06;;;;;;;;;5.50;5.50;;;;;13.13;89.94;99244.25;6247957;22;49436;-72
2022/11/17 18:46:33;;;;;;;;;7.75;6.00;;;;;13.13;90.05;99244.25;6220181;22;49527;-71
2022/11/17 18:48:59;;;;;;;;;9.75;8.00;;;;;13.01;90.25;99232.09;6246812;22;49734;-71
2022/11/17 18:51:28;;;;;;;;;8.00;6.75;;;;;12.94;90.85;99233.09;6246925;22;49572;-73
2022/11/17 18:53:54;;;;;;;;;9.25;9.25;;;;;13.09;90.67;99259.22;6247425;22;49531;-71
2022/11/17 18:56:25;;;;;;;;;9.25;9.25;;;;;12.93;92.15;99241.00;6247781;22;49365;-74
2022/11/17 18:58:50;;;;;;;;;10.25;5.50;;;;;11.65;94.68;99025.00;6221833;22;49330;-73
2022/11/17 19:01:21;;;;;;;;;3.00;3.00;;;;;11.76;96.16;99088.84;6248171;22;49637;-72